PWSweather.com
Personal Weather Stations
Station Observations
KMAMEDFI2
Medfield, MA 02052

Medfield, MA 02052

Lat: 42.1900822, Lon: -71.3296889

Elevation: 138

Station Type: Rainwise WS MK-III

http://www.medfieldweather.com

High Low Average
Temperature 76.8°F24.9°C 58.9°F14.9°C 67.5°F19.7°C
Dew Point 69.0°F20.6°C 58.3°F14.6°C 64.3°F17.9°C
Winds 3.6 mph 5.8 kmh Calm Calm 1.0 mph S1.6 kmh S
Wind Gusts 6.5 mph10.5 kmh -- 2.0 mph3.2 kmh
Humidity 99% 73% 90%
Pressure 30.06 in1017.9 mb 29.90 in1012.5 mb -
Precipitation 2017.00 in51231.8 mm - -
Hour Temp Dew Point Humidity Winds Wind Gusts Pressure Precip Precip Rate Daily Precip Total
12:00 AM 65.1°F18.4°C 59.5°F15.3°C 82% Calm Calm -- 30.06 in1017.9 mb - 0.00 in0.0 mm 0.00 in0.0 mm
12:10 AM 65.3°F18.5°C 59.3°F15.2°C 81% Calm Calm -- 30.06 in1017.9 mb - 0.00 in0.0 mm 0.00 in0.0 mm
12:20 AM 65.4°F18.6°C 59.8°F15.4°C 82% Calm Calm -- 30.05 in1017.6 mb - 0.00 in0.0 mm 0.00 in0.0 mm
12:30 AM 65.4°F18.6°C 59.8°F15.4°C 82% Calm Calm -- 30.05 in1017.6 mb - 0.00 in0.0 mm 0.00 in0.0 mm
12:40 AM 65.4°F18.6°C 59.8°F15.4°C 82% Calm Calm -- 30.05 in1017.6 mb - 0.00 in0.0 mm 0.00 in0.0 mm
12:50 AM 65.3°F18.5°C 60.3°F15.7°C 84% Calm Calm -- 30.05 in1017.6 mb - 0.00 in0.0 mm 0.00 in0.0 mm
01:00 AM 64.9°F18.3°C 60.3°F15.7°C 85% Calm Calm -- 30.05 in1017.6 mb - 0.00 in0.0 mm 0.00 in0.0 mm
01:10 AM 64.6°F18.1°C 61.6°F16.4°C 90% Calm Calm -- 30.05 in1017.6 mb - 0.00 in0.0 mm 0.00 in0.0 mm
01:20 AM 63.8°F17.7°C 61.7°F16.5°C 93% Calm Calm -- 30.05 in1017.6 mb - 0.00 in0.0 mm 0.00 in0.0 mm
01:30 AM 63.4°F17.4°C 62.3°F16.8°C 96% Calm Calm -- 30.06 in1017.9 mb - 0.00 in0.0 mm 0.00 in0.0 mm
01:40 AM 62.9°F17.2°C 62.3°F16.8°C 98% Calm Calm -- 30.04 in1017.3 mb - 0.00 in0.0 mm 0.00 in0.0 mm
01:50 AM 62.7°F17.1°C 62.1°F16.7°C 98% Calm Calm -- 30.04 in1017.3 mb - 0.01 in0.3 mm 0.01 in0.3 mm
02:00 AM 62.7°F17.1°C 62.1°F16.7°C 98% Calm Calm -- 30.04 in1017.3 mb - 0.03 in0.8 mm 0.03 in0.8 mm
02:10 AM 62.5°F16.9°C 61.9°F16.6°C 98% 0.4 mph SW0.6 kmh SW 1.3 mph2.1 kmh 30.04 in1017.3 mb - 0.01 in0.3 mm 0.03 in0.8 mm
02:20 AM 62.4°F16.9°C 61.8°F16.6°C 98% Calm Calm -- 30.03 in1016.9 mb - 0.00 in0.0 mm 0.03 in0.8 mm
02:30 AM 62.3°F16.8°C 61.7°F16.5°C 98% Calm Calm -- 30.03 in1016.9 mb - 0.00 in0.0 mm 0.03 in0.8 mm
02:40 AM 62.4°F16.9°C 61.8°F16.6°C 98% Calm Calm -- 30.04 in1017.3 mb - 0.00 in0.0 mm 0.03 in0.8 mm
02:50 AM 62.4°F16.9°C 61.8°F16.6°C 98% Calm Calm -- 30.04 in1017.3 mb - 0.00 in0.0 mm 0.03 in0.8 mm
03:00 AM 62.5°F16.9°C 61.9°F16.6°C 98% Calm Calm -- 30.05 in1017.6 mb - 0.01 in0.3 mm 0.04 in1.0 mm
03:10 AM 62.4°F16.9°C 61.8°F16.6°C 98% Calm Calm -- 30.04 in1017.3 mb - 0.01 in0.3 mm 0.05 in1.3 mm
03:20 AM 62.2°F16.8°C 61.6°F16.4°C 98% Calm Calm -- 30.04 in1017.3 mb - 0.01 in0.3 mm 0.06 in1.5 mm
03:30 AM 62.1°F16.7°C 61.5°F16.4°C 98% Calm Calm -- 30.04 in1017.3 mb - 0.02 in0.5 mm 0.07 in1.8 mm
03:40 AM 61.9°F16.6°C 61.3°F16.3°C 98% Calm Calm -- 30.04 in1017.3 mb - 0.01 in0.3 mm 0.08 in2.0 mm
03:50 AM 61.9°F16.6°C 61.3°F16.3°C 98% Calm Calm -- 30.04 in1017.3 mb - 0.00 in0.0 mm 0.08 in2.0 mm
04:00 AM 61.8°F16.6°C 61.2°F16.2°C 98% Calm Calm -- 30.04 in1017.3 mb - 0.01 in0.3 mm 0.09 in2.3 mm
04:10 AM 61.8°F16.6°C 61.2°F16.2°C 98% Calm Calm -- 30.03 in1016.9 mb - 0.00 in0.0 mm 0.09 in2.3 mm
04:20 AM 61.7°F16.5°C 61.2°F16.2°C 98% Calm Calm -- 30.04 in1017.3 mb - 0.00 in0.0 mm 0.09 in2.3 mm
04:30 AM 61.7°F16.5°C 61.1°F16.2°C 98% Calm Calm -- 30.05 in1017.6 mb - 0.01 in0.3 mm 0.11 in2.8 mm
04:40 AM 61.7°F16.5°C 61.2°F16.2°C 98% 0.2 mph NNE0.3 kmh NNE -- 30.04 in1017.3 mb - 0.02 in0.5 mm 0.12 in3.0 mm
04:50 AM 61.4°F16.3°C 60.9°F16.1°C 98% Calm Calm -- 30.03 in1016.9 mb - 0.02 in0.5 mm 0.13 in3.3 mm
05:00 AM 61.1°F16.2°C 60.5°F15.8°C 98% 0.4 mph NNE0.6 kmh NNE 2.6 mph4.2 kmh 30.03 in1016.9 mb - 0.02 in0.5 mm 0.14 in3.6 mm
05:10 AM 60.5°F15.8°C 60.0°F15.6°C 98% Calm Calm -- 30.02 in1016.6 mb - 0.01 in0.3 mm 0.15 in3.8 mm
05:20 AM 60.2°F15.7°C 59.6°F15.3°C 98% Calm Calm -- 30.03 in1016.9 mb - 0.01 in0.3 mm 0.15 in3.8 mm
05:30 AM 59.7°F15.4°C 59.2°F15.1°C 98% Calm Calm -- 30.02 in1016.6 mb - 0.00 in0.0 mm 0.15 in3.8 mm
05:40 AM 59.4°F15.2°C 58.9°F14.9°C 98% Calm Calm -- 30.02 in1016.6 mb - 0.00 in0.0 mm 0.15 in3.8 mm
05:50 AM 59.5°F15.3°C 58.9°F14.9°C 98% 0.2 mph NW0.3 kmh NW 1.3 mph2.1 kmh 30.01 in1016.3 mb - 0.01 in0.3 mm 0.16 in4.1 mm
06:00 AM 59.3°F15.2°C 58.7°F14.8°C 98% Calm Calm -- 30.00 in1015.9 mb - 0.01 in0.3 mm 0.16 in4.1 mm
06:10 AM 58.9°F14.9°C 58.3°F14.6°C 98% Calm Calm -- 29.99 in1015.6 mb - 0.00 in0.0 mm 0.16 in4.1 mm
06:20 AM 58.9°F14.9°C 58.3°F14.6°C 98% Calm Calm -- 29.99 in1015.6 mb - 0.00 in0.0 mm 0.16 in4.1 mm
06:30 AM 58.9°F14.9°C 58.3°F14.6°C 98% Calm Calm -- 29.99 in1015.6 mb - 0.00 in0.0 mm 0.16 in4.1 mm
06:40 AM 58.9°F14.9°C 58.3°F14.6°C 98% Calm Calm -- 29.99 in1015.6 mb - 0.00 in0.0 mm 0.16 in4.1 mm
06:50 AM 59.1°F15.1°C 58.5°F14.7°C 98% Calm Calm -- 30.00 in1015.9 mb - 0.00 in0.0 mm 0.16 in4.1 mm
07:00 AM 59.4°F15.2°C 58.8°F14.9°C 98% Calm Calm -- 30.00 in1015.9 mb - 0.00 in0.0 mm 0.16 in4.1 mm
07:10 AM 59.5°F15.3°C 58.9°F14.9°C 98% Calm Calm -- 30.00 in1015.9 mb - 0.00 in0.0 mm 0.16 in4.1 mm
07:20 AM 59.8°F15.4°C 59.2°F15.1°C 98% Calm Calm -- 30.00 in1015.9 mb - 0.00 in0.0 mm 0.16 in4.1 mm
07:30 AM 60.3°F15.7°C 59.7°F15.4°C 98% Calm Calm -- 30.00 in1015.9 mb - 0.00 in0.0 mm 0.16 in4.1 mm
07:40 AM 60.7°F15.9°C 60.1°F15.6°C 98% Calm Calm -- 30.00 in1015.9 mb - 0.00 in0.0 mm 0.16 in4.1 mm
07:50 AM 60.9°F16.1°C 60.3°F15.7°C 98% Calm Calm -- 29.99 in1015.6 mb - 0.00 in0.0 mm 0.16 in4.1 mm
08:00 AM 60.8°F16.0°C 60.2°F15.7°C 98% Calm Calm -- 29.99 in1015.6 mb - 0.00 in0.0 mm 0.16 in4.1 mm
08:10 AM 61.3°F16.3°C 60.7°F15.9°C 98% 1.0 mph NW1.6 kmh NW 1.3 mph2.1 kmh 29.99 in1015.6 mb - 0.00 in0.0 mm 0.16 in4.1 mm
08:20 AM 61.4°F16.3°C 60.9°F16.1°C 98% 2.5 mph NW4.0 kmh NW 2.6 mph4.2 kmh 29.99 in1015.6 mb - 0.00 in0.0 mm 0.16 in4.1 mm
08:30 AM 61.4°F16.3°C 60.8°F16.0°C 98% Calm Calm -- 29.99 in1015.6 mb - 0.00 in0.0 mm 0.16 in4.1 mm
08:40 AM 61.6°F16.4°C 61.0°F16.1°C 98% 2.3 mph NW3.7 kmh NW 2.6 mph4.2 kmh 29.99 in1015.6 mb - 0.00 in0.0 mm 0.16 in4.1 mm
08:50 AM 61.9°F16.6°C 61.3°F16.3°C 98% 0.1 mph NW0.2 kmh NW 1.3 mph2.1 kmh 29.99 in1015.6 mb - 0.00 in0.0 mm 0.16 in4.1 mm
09:00 AM 61.9°F16.6°C 61.3°F16.3°C 98% Calm Calm -- 29.99 in1015.6 mb - 0.00 in0.0 mm 0.16 in4.1 mm
09:10 AM 62.4°F16.9°C 61.8°F16.6°C 98% Calm Calm -- 29.98 in1015.2 mb - 0.00 in0.0 mm 0.16 in4.1 mm
09:20 AM 62.9°F17.2°C 62.3°F16.8°C 98% Calm Calm -- 29.98 in1015.2 mb - 0.00 in0.0 mm 0.16 in4.1 mm
09:30 AM 63.3°F17.4°C 62.7°F17.1°C 98% 0.1 mph NW0.2 kmh NW 1.3 mph2.1 kmh 29.98 in1015.2 mb - 0.00 in0.0 mm 0.16 in4.1 mm
09:40 AM 63.9°F17.7°C 63.3°F17.4°C 98% 0.7 mph SW1.1 kmh SW 2.6 mph4.2 kmh 29.99 in1015.6 mb - 0.00 in0.0 mm 0.16 in4.1 mm
09:50 AM 64.4°F18.0°C 63.8°F17.7°C 98% 1.7 mph NE2.7 kmh NE 2.6 mph4.2 kmh 29.99 in1015.6 mb - 0.00 in0.0 mm 0.16 in4.1 mm
10:00 AM 65.4°F18.6°C 64.2°F17.9°C 96% 2.4 mph E3.9 kmh E 3.9 mph6.3 kmh 29.99 in1015.6 mb - 0.00 in0.0 mm 0.16 in4.1 mm
10:10 AM 66.4°F19.1°C 64.6°F18.1°C 94% 2.5 mph NE4.0 kmh NE 3.9 mph6.3 kmh 29.99 in1015.6 mb - 0.00 in0.0 mm 0.16 in4.1 mm
10:20 AM 67.8°F19.9°C 64.8°F18.2°C 90% 1.4 mph NE2.3 kmh NE 2.6 mph4.2 kmh 30.00 in1015.9 mb - 0.00 in0.0 mm 0.16 in4.1 mm
10:30 AM 68.3°F20.2°C 62.9°F17.2°C 83% 2.8 mph SSW4.5 kmh SSW 2.6 mph4.2 kmh 30.01 in1016.3 mb - 0.00 in0.0 mm 0.16 in4.1 mm
10:40 AM 68.1°F20.1°C 64.1°F17.8°C 87% 2.4 mph SSW3.9 kmh SSW 2.6 mph4.2 kmh 30.01 in1016.3 mb - 0.00 in0.0 mm 0.16 in4.1 mm
10:50 AM 68.5°F20.3°C 64.1°F17.8°C 86% 2.4 mph SW3.9 kmh SW 3.9 mph6.3 kmh 30.01 in1016.3 mb - 0.00 in0.0 mm 0.16 in4.1 mm
11:00 AM 68.9°F20.5°C 64.5°F18.1°C 86% Calm Calm 2.6 mph4.2 kmh 30.01 in1016.3 mb - 0.00 in0.0 mm 0.16 in4.1 mm
11:10 AM 69.7°F20.9°C 64.6°F18.1°C 84% 0.4 mph SW0.6 kmh SW 2.6 mph4.2 kmh 30.01 in1016.3 mb - 0.00 in0.0 mm 0.16 in4.1 mm
11:20 AM 71.0°F21.7°C 63.8°F17.7°C 78% 3.6 mph NE5.8 kmh NE 5.2 mph8.4 kmh 30.00 in1015.9 mb - 0.00 in0.0 mm 0.16 in4.1 mm
11:30 AM 71.5°F21.9°C 65.0°F18.3°C 80% 1.5 mph WSW2.4 kmh WSW 2.6 mph4.2 kmh 30.01 in1016.3 mb - 0.00 in0.0 mm 0.16 in4.1 mm
11:40 AM 71.2°F21.8°C 64.4°F18.0°C 79% 1.7 mph S2.7 kmh S 2.6 mph4.2 kmh 30.00 in1015.9 mb - 0.00 in0.0 mm 0.16 in4.1 mm
11:50 AM 70.9°F21.6°C 64.8°F18.2°C 81% 1.2 mph SE1.9 kmh SE 2.6 mph4.2 kmh 30.00 in1015.9 mb - 0.00 in0.0 mm 0.16 in4.1 mm
12:00 PM 70.9°F21.6°C 65.5°F18.6°C 83% 1.2 mph SW1.9 kmh SW 2.6 mph4.2 kmh 29.98 in1015.2 mb - 0.00 in0.0 mm 0.16 in4.1 mm
12:10 PM 71.1°F21.7°C 65.0°F18.3°C 81% 2.5 mph E4.0 kmh E 2.6 mph4.2 kmh 29.98 in1015.2 mb - 0.00 in0.0 mm 0.16 in4.1 mm
12:20 PM 71.0°F21.7°C 65.2°F18.4°C 82% 2.0 mph E3.2 kmh E 2.6 mph4.2 kmh 29.98 in1015.2 mb - 0.00 in0.0 mm 0.16 in4.1 mm
12:30 PM 71.9°F22.2°C 65.1°F18.4°C 79% 2.3 mph E3.7 kmh E 3.9 mph6.3 kmh 29.98 in1015.2 mb - 0.00 in0.0 mm 0.16 in4.1 mm
12:40 PM 72.5°F22.5°C 66.4°F19.1°C 81% 2.4 mph E3.9 kmh E 2.6 mph4.2 kmh 29.99 in1015.6 mb - 0.00 in0.0 mm 0.16 in4.1 mm
12:50 PM 72.8°F22.7°C 65.2°F18.4°C 77% 2.4 mph S3.9 kmh S 2.6 mph4.2 kmh 29.98 in1015.2 mb - 0.00 in0.0 mm 0.16 in4.1 mm
01:00 PM 72.7°F22.6°C 66.5°F19.2°C 81% 2.2 mph SE3.5 kmh SE 2.6 mph4.2 kmh 29.99 in1015.6 mb - 0.00 in0.0 mm 0.16 in4.1 mm
01:10 PM 72.2°F22.3°C 65.3°F18.5°C 79% 2.1 mph ESE3.4 kmh ESE 2.6 mph4.2 kmh 29.99 in1015.6 mb - 0.00 in0.0 mm 0.16 in4.1 mm
01:20 PM 72.1°F22.3°C 65.6°F18.7°C 80% 1.0 mph SSW1.6 kmh SSW 5.2 mph8.4 kmh 29.99 in1015.6 mb - 0.00 in0.0 mm 0.16 in4.1 mm
01:30 PM 71.7°F22.1°C 66.3°F19.1°C 83% 2.5 mph E4.0 kmh E 2.6 mph4.2 kmh 29.98 in1015.2 mb - 0.00 in0.0 mm 0.16 in4.1 mm
01:40 PM 71.8°F22.1°C 66.4°F19.1°C 83% 2.6 mph E4.2 kmh E 2.6 mph4.2 kmh 29.98 in1015.2 mb - 0.00 in0.0 mm 0.16 in4.1 mm
01:50 PM 72.2°F22.3°C 65.7°F18.7°C 80% 2.2 mph SSE3.5 kmh SSE 3.9 mph6.3 kmh 29.97 in1014.9 mb - 0.00 in0.0 mm 0.16 in4.1 mm
02:00 PM 72.3°F22.4°C 65.4°F18.6°C 79% 1.7 mph S2.7 kmh S 2.6 mph4.2 kmh 29.97 in1014.9 mb - 0.00 in0.0 mm 0.16 in4.1 mm
02:10 PM 72.9°F22.7°C 66.4°F19.1°C 80% 2.7 mph NW4.3 kmh NW 3.9 mph6.3 kmh 29.97 in1014.9 mb - 0.00 in0.0 mm 0.16 in4.1 mm
02:20 PM 73.4°F23.0°C 66.9°F19.4°C 80% 2.2 mph SE3.5 kmh SE 2.6 mph4.2 kmh 29.97 in1014.9 mb - 0.00 in0.0 mm 0.16 in4.1 mm
02:30 PM 73.6°F23.1°C 65.6°F18.7°C 76% 2.0 mph S3.2 kmh S 2.6 mph4.2 kmh 29.97 in1014.9 mb - 0.00 in0.0 mm 0.16 in4.1 mm
02:40 PM 74.0°F23.3°C 65.6°F18.7°C 75% 2.8 mph SSW4.5 kmh SSW 2.6 mph4.2 kmh 29.97 in1014.9 mb - 0.00 in0.0 mm 0.16 in4.1 mm
02:50 PM 74.1°F23.4°C 66.8°F19.3°C 78% 2.3 mph SW3.7 kmh SW 3.9 mph6.3 kmh 29.97 in1014.9 mb - 0.00 in0.0 mm 0.16 in4.1 mm
03:00 PM 74.0°F23.3°C 66.3°F19.1°C 77% 0.9 mph SE1.4 kmh SE 2.6 mph4.2 kmh 29.96 in1014.6 mb - 0.00 in0.0 mm 0.16 in4.1 mm
03:10 PM 73.7°F23.2°C 66.4°F19.1°C 78% 1.9 mph E3.1 kmh E 2.6 mph4.2 kmh 29.96 in1014.6 mb - 0.00 in0.0 mm 0.16 in4.1 mm
03:20 PM 75.3°F24.1°C 67.2°F19.6°C 76% 1.5 mph SW2.4 kmh SW 2.6 mph4.2 kmh 29.96 in1014.6 mb - 0.00 in0.0 mm 0.16 in4.1 mm
03:30 PM 74.3°F23.5°C 66.3°F19.1°C 76% 2.1 mph E3.4 kmh E 2.6 mph4.2 kmh 29.96 in1014.6 mb - 0.00 in0.0 mm 0.16 in4.1 mm
03:40 PM 74.2°F23.4°C 66.9°F19.4°C 78% 0.3 mph SE0.5 kmh SE 5.2 mph8.4 kmh 29.95 in1014.2 mb - 0.00 in0.0 mm 0.16 in4.1 mm
03:50 PM 74.7°F23.7°C 67.7°F19.8°C 79% 0.6 mph S1.0 kmh S 1.3 mph2.1 kmh 29.95 in1014.2 mb - 0.00 in0.0 mm 0.16 in4.1 mm
04:00 PM 75.7°F24.3°C 67.6°F19.8°C 76% 2.0 mph SW3.2 kmh SW 2.6 mph4.2 kmh 29.95 in1014.2 mb - 0.00 in0.0 mm 0.16 in4.1 mm
04:10 PM 75.4°F24.1°C 67.3°F19.6°C 76% 1.5 mph S2.4 kmh S 2.6 mph4.2 kmh 29.95 in1014.2 mb - 0.00 in0.0 mm 0.16 in4.1 mm
04:20 PM 74.8°F23.8°C 66.8°F19.3°C 76% 2.4 mph S3.9 kmh S 2.6 mph4.2 kmh 29.94 in1013.9 mb - 0.00 in0.0 mm 0.16 in4.1 mm
04:30 PM 75.7°F24.3°C 68.7°F20.4°C 79% 2.7 mph ENE4.3 kmh ENE 2.6 mph4.2 kmh 29.94 in1013.9 mb - 0.00 in0.0 mm 0.16 in4.1 mm
04:40 PM 76.8°F24.9°C 67.5°F19.7°C 73% 2.4 mph S3.9 kmh S 5.2 mph8.4 kmh 29.94 in1013.9 mb - 0.00 in0.0 mm 0.16 in4.1 mm
04:50 PM 76.4°F24.7°C 67.1°F19.5°C 73% 2.2 mph S3.5 kmh S 6.5 mph10.5 kmh 29.94 in1013.9 mb - 0.00 in0.0 mm 0.16 in4.1 mm
05:00 PM 75.5°F24.2°C 67.4°F19.7°C 76% 1.2 mph SE1.9 kmh SE 2.6 mph4.2 kmh 29.93 in1013.5 mb - 0.00 in0.0 mm 0.16 in4.1 mm
05:10 PM 74.8°F23.8°C 67.5°F19.7°C 78% 2.4 mph SE3.9 kmh SE 2.6 mph4.2 kmh 29.93 in1013.5 mb - 0.00 in0.0 mm 0.16 in4.1 mm
05:20 PM 74.8°F23.8°C 67.1°F19.5°C 77% 2.3 mph S3.7 kmh S 2.6 mph4.2 kmh 29.93 in1013.5 mb - 0.00 in0.0 mm 0.16 in4.1 mm
05:30 PM 74.6°F23.7°C 67.3°F19.6°C 78% 2.1 mph SE3.4 kmh SE 3.9 mph6.3 kmh 29.93 in1013.5 mb - 0.00 in0.0 mm 0.16 in4.1 mm
05:40 PM 74.4°F23.6°C 67.8°F19.9°C 80% 0.6 mph NE1.0 kmh NE 1.3 mph2.1 kmh 29.93 in1013.5 mb - 0.00 in0.0 mm 0.16 in4.1 mm
05:50 PM 74.3°F23.5°C 68.1°F20.1°C 81% 1.5 mph SE2.4 kmh SE 1.3 mph2.1 kmh 29.93 in1013.5 mb - 0.00 in0.0 mm 0.16 in4.1 mm
06:00 PM 74.2°F23.4°C 67.6°F19.8°C 80% 3.1 mph SE5.0 kmh SE 2.6 mph4.2 kmh 29.92 in1013.2 mb - 0.00 in0.0 mm 0.16 in4.1 mm
06:10 PM 74.1°F23.4°C 67.6°F19.8°C 80% 3.0 mph S4.8 kmh S 5.2 mph8.4 kmh 29.93 in1013.5 mb - 0.00 in0.0 mm 0.16 in4.1 mm
06:20 PM 73.6°F23.1°C 67.8°F19.9°C 82% 1.6 mph SSE2.6 kmh SSE 2.6 mph4.2 kmh 29.93 in1013.5 mb - 0.00 in0.0 mm 0.16 in4.1 mm
06:30 PM 73.1°F22.8°C 68.0°F20.0°C 84% 1.0 mph S1.6 kmh S 1.3 mph2.1 kmh 29.93 in1013.5 mb - 0.00 in0.0 mm 0.16 in4.1 mm
06:40 PM 72.9°F22.7°C 68.1°F20.1°C 85% 1.5 mph SSE2.4 kmh SSE 2.6 mph4.2 kmh 29.93 in1013.5 mb - 0.00 in0.0 mm 0.16 in4.1 mm
06:50 PM 72.7°F22.6°C 67.9°F19.9°C 85% 1.2 mph SSE1.9 kmh SSE 3.9 mph6.3 kmh 29.93 in1013.5 mb - 0.00 in0.0 mm 0.16 in4.1 mm
07:00 PM 72.2°F22.3°C 68.2°F20.1°C 87% 2.8 mph S4.5 kmh S 5.2 mph8.4 kmh 29.93 in1013.5 mb - 0.00 in0.0 mm 0.16 in4.1 mm
07:10 PM 71.9°F22.2°C 68.1°F20.1°C 88% 0.7 mph ESE1.1 kmh ESE 5.2 mph8.4 kmh 29.93 in1013.5 mb - 0.00 in0.0 mm 0.16 in4.1 mm
07:20 PM 71.4°F21.9°C 68.3°F20.2°C 90% 1.2 mph NE1.9 kmh NE 2.6 mph4.2 kmh 29.92 in1013.2 mb - 0.00 in0.0 mm 0.16 in4.1 mm
07:30 PM 70.9°F21.6°C 68.5°F20.3°C 92% 0.3 mph SSE0.5 kmh SSE 2.6 mph4.2 kmh 29.92 in1013.2 mb - 0.00 in0.0 mm 0.16 in4.1 mm
07:40 PM 70.4°F21.3°C 68.6°F20.3°C 94% 0.6 mph N1.0 kmh N 1.3 mph2.1 kmh 29.91 in1012.9 mb - 0.00 in0.0 mm 0.16 in4.1 mm
07:50 PM 69.9°F21.1°C 68.4°F20.2°C 95% 0.4 mph ESE0.6 kmh ESE 2.6 mph4.2 kmh 29.91 in1012.9 mb - 0.00 in0.0 mm 0.16 in4.1 mm
08:00 PM 69.6°F20.9°C 68.8°F20.4°C 97% 1.5 mph SE2.4 kmh SE 2.6 mph4.2 kmh 29.91 in1012.9 mb - 0.00 in0.0 mm 0.16 in4.1 mm
08:10 PM 69.4°F20.8°C 68.8°F20.4°C 98% 0.7 mph S1.1 kmh S -- 29.92 in1013.2 mb - 0.00 in0.0 mm 0.16 in4.1 mm
08:50 PM 69.2°F20.7°C 67.7°F19.8°C 95% 0.9 mph S1.4 kmh S 2.6 mph4.2 kmh 29.92 in1013.2 mb - 0.00 in0.0 mm 0.16 in4.1 mm
09:50 PM 70.2°F21.2°C 68.7°F20.4°C 95% 0.7 mph SW1.1 kmh SW 2.6 mph4.2 kmh 29.91 in1012.9 mb - 0.00 in0.0 mm 0.16 in4.1 mm
10:30 PM 69.8°F21.0°C 68.3°F20.2°C 95% 0.9 mph S1.4 kmh S 2.6 mph4.2 kmh 29.91 in1012.9 mb - 0.00 in0.0 mm 2017.00 in51231.8 mm
11:00 PM 69.7°F20.9°C 68.2°F20.1°C 95% 1.9 mph ESE3.1 kmh ESE 2.6 mph4.2 kmh 29.91 in1012.9 mb - 0.00 in0.0 mm 0.16 in4.1 mm
11:30 PM 69.0°F20.6°C 68.4°F20.2°C 98% 1.9 mph WSW3.1 kmh WSW 2.6 mph4.2 kmh 29.90 in1012.5 mb - 0.00 in0.0 mm 0.16 in4.1 mm
11:40 PM 68.9°F20.5°C 68.4°F20.2°C 98% 1.6 mph SSE2.6 kmh SSE 2.6 mph4.2 kmh 29.90 in1012.5 mb - 0.00 in0.0 mm 0.16 in4.1 mm
11:50 PM 68.8°F20.4°C 68.5°F20.3°C 99% 0.1 mph S0.2 kmh S 2.6 mph4.2 kmh 29.91 in1012.9 mb - 0.00 in0.0 mm 0.16 in4.1 mm